Time;durP1;ratioP1;P1;durP2;ratioP2;P2;SDS_P1;SDS_P2;PMS_P1;PMS_P2;Temp;Humidity;BMP_temperature;BMP_pressure;BME280_temperature;BME280_humidity;BME280_pressure;Samples;Min_cycle;Max_cycle;Signal;HPM_P1;HPM_P2
2021/08/16 00:01:20;;;;;;;9.05;3.47;;;16.60;70.50;;;;;;5020785;27;96273;-55
2021/08/16 00:03:51;;;;;;;9.98;3.10;;;16.60;70.30;;;;;;5026215;27;95995;-57
2021/08/16 00:06:22;;;;;;;9.20;3.40;;;16.60;70.20;;;;;;5006551;28;96336;-56
2021/08/16 00:08:55;;;;;;;8.90;3.67;;;16.60;70.20;;;;;;5024793;27;95840;-56
2021/08/16 00:11:25;;;;;;;10.50;3.47;;;16.60;70.20;;;;;;5006377;28;96031;-57
2021/08/16 00:13:55;;;;;;;7.50;2.97;;;16.60;70.00;;;;;;5024636;27;96366;-55
2021/08/16 00:16:25;;;;;;;11.23;3.58;;;16.60;70.00;;;;;;5019805;28;96425;-55
2021/08/16 00:18:56;;;;;;;6.63;2.88;;;16.60;69.90;;;;;;5024451;27;95890;-53
2021/08/16 00:21:27;;;;;;;8.60;3.50;;;16.60;69.70;;;;;;5025959;28;96135;-56
2021/08/16 00:23:57;;;;;;;9.63;4.20;;;16.60;69.70;;;;;;5025233;27;95974;-56
2021/08/16 00:26:27;;;;;;;12.10;3.60;;;16.60;69.70;;;;;;5025575;28;96360;-53
2021/08/16 00:28:59;;;;;;;7.70;2.78;;;16.60;69.70;;;;;;5023759;27;95737;-55
2021/08/16 00:31:31;;;;;;;10.50;3.80;;;16.60;69.70;;;;;;5019872;27;95296;-54
2021/08/16 00:34:02;;;;;;;7.38;2.95;;;16.70;69.70;;;;;;5020733;27;95934;-52
2021/08/16 00:36:33;;;;;;;10.35;3.58;;;16.70;69.50;;;;;;5012652;28;96520;-53
2021/08/16 00:39:03;;;;;;;;;;;16.70;69.40;;;;;;5025477;27;97133;-55
2021/08/16 00:41:35;;;;;;;9.77;2.83;;;16.70;69.30;;;;;;5023695;28;95870;-54
2021/08/16 00:44:08;;;;;;;8.77;2.95;;;16.70;69.20;;;;;;5024846;27;96200;-55
2021/08/16 00:46:39;;;;;;;9.60;3.63;;;16.70;69.10;;;;;;5018549;28;95842;-53
2021/08/16 00:49:09;;;;;;;9.90;3.60;;;16.70;69.10;;;;;;5039540;27;96407;-52
2021/08/16 00:51:39;;;;;;;11.50;3.83;;;16.70;68.90;;;;;;5025052;27;96016;-56
2021/08/16 00:54:11;;;;;;;9.07;2.90;;;16.80;68.90;;;;;;5024147;27;95856;-52
2021/08/16 00:56:42;;;;;;;9.80;3.55;;;16.70;68.90;;;;;;5022866;27;96443;-54
2021/08/16 00:59:14;;;;;;;11.18;3.35;;;16.80;69.00;;;;;;5038754;27;96065;-54
2021/08/16 01:01:45;;;;;;;8.20;3.60;;;16.80;68.90;;;;;;5020094;28;95738;-55
2021/08/16 01:04:18;;;;;;;7.47;3.15;;;16.70;68.80;;;;;;5025572;27;96057;-55
2021/08/16 01:06:50;;;;;;;9.05;3.67;;;16.70;68.80;;;;;;5024651;27;96565;-55
2021/08/16 01:09:21;;;;;;;9.77;3.78;;;16.70;68.80;;;;;;5024116;27;96326;-56
2021/08/16 01:11:52;;;;;;;9.15;3.78;;;16.70;68.80;;;;;;5023924;27;95677;-55
2021/08/16 01:14:21;;;;;;;7.70;3.13;;;16.70;68.80;;;;;;5023853;28;95667;-53
2021/08/16 01:16:52;;;;;;;6.57;3.42;;;16.60;68.80;;;;;;5019949;27;95987;-55
2021/08/16 01:19:23;;;;;;;7.13;3.10;;;16.60;69.00;;;;;;5025315;28;95462;-52
2021/08/16 01:21:54;;;;;;;8.30;3.55;;;16.60;69.00;;;;;;5025296;27;96032;-53
2021/08/16 01:24:24;;;;;;;10.50;3.03;;;16.60;69.20;;;;;;5024547;28;95612;-53
2021/08/16 01:26:55;;;;;;;7.40;2.70;;;16.60;69.30;;;;;;5023959;27;96295;-52
2021/08/16 01:29:26;;;;;;;8.00;2.78;;;16.70;69.70;;;;;;5021667;28;95697;-52
2021/08/16 01:32:03;;;;;;;6.75;3.05;;;16.80;69.60;;;;;;5018649;27;95668;-52
2021/08/16 01:34:34;;;;;;;5.47;2.78;;;16.90;69.60;;;;;;5016789;28;95980;-54
2021/08/16 01:37:05;;;;;;;6.57;3.08;;;17.00;69.50;;;;;;5013066;27;97166;-53
2021/08/16 01:39:36;;;;;;;9.25;3.42;;;17.10;69.30;;;;;;5025150;27;97586;-54
2021/08/16 01:42:07;;;;;;;5.93;2.65;;;17.20;69.40;;;;;;5025858;27;95274;-53
2021/08/16 01:44:38;;;;;;;9.43;2.80;;;17.20;69.30;;;;;;5023734;27;95816;-53
2021/08/16 01:47:08;;;;;;;5.90;2.58;;;17.20;69.30;;;;;;5002670;28;96418;-54
2021/08/16 01:49:38;;;;;;;4.97;2.17;;;17.30;69.30;;;;;;5026211;28;95953;-52
2021/08/16 01:52:10;;;;;;;8.18;2.75;;;17.30;68.90;;;;;;5026009;27;95770;-56
2021/08/16 01:54:41;;;;;;;5.90;2.15;;;17.30;69.00;;;;;;5026300;28;95994;-51
2021/08/16 01:57:12;;;;;;;6.10;2.40;;;17.40;69.10;;;;;;5026165;27;95858;-51
2021/08/16 01:59:41;;;;;;;;;;;17.40;69.00;;;;;;5024153;27;95730;-53
2021/08/16 02:02:12;;;;;;;6.05;2.00;;;17.50;69.10;;;;;;5004193;28;95464;-55
2021/08/16 02:04:47;;;;;;;5.18;2.45;;;17.50;69.00;;;;;;5027545;28;95878;-52
2021/08/16 02:07:17;;;;;;;4.65;2.40;;;17.60;69.00;;;;;;5027698;27;95864;-52
2021/08/16 02:09:47;;;;;;;5.18;2.58;;;17.60;69.10;;;;;;5027196;28;96426;-53
2021/08/16 02:12:16;;;;;;;4.63;2.00;;;17.60;69.00;;;;;;5027127;27;95893;-53
2021/08/16 02:14:46;;;;;;;5.25;1.95;;;17.60;69.00;;;;;;5009632;28;96192;-53
2021/08/16 02:17:17;;;;;;;5.25;2.10;;;17.70;69.00;;;;;;5022398;27;96841;-55
2021/08/16 02:19:49;;;;;;;5.15;2.90;;;17.70;69.00;;;;;;5026340;28;96173;-55
2021/08/16 02:22:20;;;;;;;4.22;1.92;;;17.70;69.00;;;;;;5027937;27;96047;-54
2021/08/16 02:24:50;;;;;;;6.30;2.72;;;17.70;68.20;;;;;;5048733;27;95992;-54
2021/08/16 02:27:21;;;;;;;7.88;3.20;;;17.70;68.90;;;;;;5029240;27;96353;-56
2021/08/16 02:29:52;;;;;;;12.02;3.03;;;17.60;67.40;;;;;;5029541;27;95820;-54
2021/08/16 02:32:23;;;;;;;6.38;3.00;;;17.50;67.90;;;;;;5001021;27;96207;-54
2021/08/16 02:34:54;;;;;;;8.85;2.83;;;17.40;68.70;;;;;;5017027;27;95795;-54
2021/08/16 02:37:24;;;;;;;8.88;3.33;;;17.30;68.10;;;;;;5019314;27;98989;-55
2021/08/16 02:39:57;;;;;;;5.90;2.95;;;17.20;68.20;;;;;;5023682;27;95728;-50
2021/08/16 02:42:28;;;;;;;8.85;2.95;;;17.20;68.40;;;;;;5025393;27;95955;-54
2021/08/16 02:44:58;;;;;;;10.85;3.28;;;17.10;68.60;;;;;;5025439;27;96218;-51
2021/08/16 02:47:29;;;;;;;4.72;2.38;;;17.10;68.70;;;;;;5024739;27;95854;-53
2021/08/16 02:50:00;;;;;;;7.53;2.90;;;17.00;68.80;;;;;;5023923;27;96011;-55
2021/08/16 02:52:31;;;;;;;5.80;2.25;;;17.00;68.90;;;;;;5025033;27;95686;-57
2021/08/16 02:55:02;;;;;;;4.68;2.35;;;17.00;69.00;;;;;;5007335;27;96150;-51
2021/08/16 02:57:32;;;;;;;7.10;2.13;;;17.10;68.90;;;;;;5025939;27;96513;-51
2021/08/16 03:00:03;;;;;;;4.15;1.63;;;17.30;69.40;;;;;;5025972;27;95730;-50
2021/08/16 03:02:33;;;;;;;6.37;2.10;;;17.40;68.60;;;;;;5025585;28;95849;-51
2021/08/16 03:05:05;;;;;;;3.35;2.10;;;17.50;68.50;;;;;;5026691;27;96308;-52
2021/08/16 03:07:36;;;;;;;5.82;2.42;;;17.50;68.40;;;;;;5025668;28;96213;-53
2021/08/16 03:10:12;;;;;;;3.00;1.90;;;17.60;68.40;;;;;;5025263;27;95673;-50
2021/08/16 03:12:44;;;;;;;4.93;1.85;;;17.60;68.20;;;;;;5026016;27;95811;-50
2021/08/16 03:15:14;;;;;;;4.00;1.67;;;17.70;68.30;;;;;;5022294;27;95798;-50
2021/08/16 03:17:45;;;;;;;;;;;17.70;68.30;;;;;;5024895;27;95902;-50
2021/08/16 03:20:20;;;;;;;3.65;1.42;;;17.80;68.30;;;;;;5026849;27;95965;-51
2021/08/16 03:22:50;;;;;;;3.92;1.80;;;17.80;68.40;;;;;;5026856;28;96231;-50
2021/08/16 03:25:20;;;;;;;3.90;1.58;;;17.80;68.40;;;;;;5025913;27;97133;-54
2021/08/16 03:27:50;;;;;;;4.85;1.75;;;17.80;68.50;;;;;;5025779;28;98882;-52
2021/08/16 03:30:22;;;;;;;;;;;17.90;68.40;;;;;;5021061;27;95341;-52
2021/08/16 03:32:53;;;;;;;3.13;1.58;;;17.90;68.50;;;;;;5027620;27;95781;-52
2021/08/16 03:35:24;;;;;;;2.08;1.15;;;17.90;68.60;;;;;;5011158;27;96042;-55
2021/08/16 03:37:55;;;;;;;2.65;1.42;;;18.00;68.60;;;;;;5019156;27;96368;-50
2021/08/16 03:40:26;;;;;;;2.97;1.30;;;18.00;68.50;;;;;;5023216;27;97820;-53
2021/08/16 03:42:57;;;;;;;4.90;1.90;;;18.20;68.50;;;;;;5022827;27;96814;-53
2021/08/16 03:45:27;;;;;;;2.33;1.27;;;18.30;68.30;;;;;;5018704;27;95806;-53
2021/08/16 03:47:57;;;;;;;2.28;0.93;;;18.50;67.90;;;;;;5006647;28;103307;-50
2021/08/16 03:50:27;;;;;;;3.22;1.52;;;18.70;67.70;;;;;;5026323;28;96549;-49
2021/08/16 03:52:58;;;;;;;2.65;1.73;;;18.80;67.40;;;;;;5025739;27;97597;-55
2021/08/16 03:55:30;;;;;;;2.90;1.27;;;18.90;67.20;;;;;;5025674;28;95957;-54
2021/08/16 03:58:03;;;;;;;1.92;1.00;;;19.00;67.10;;;;;;5025621;27;96903;-53
2021/08/16 04:00:33;;;;;;;1.65;1.15;;;19.10;66.70;;;;;;5002045;28;98435;-54
2021/08/16 04:03:05;;;;;;;;;;;19.20;66.70;;;;;;5027472;27;95864;-54
2021/08/16 04:05:36;;;;;;;3.03;1.30;;;19.30;66.50;;;;;;5008680;28;96439;-52
2021/08/16 04:08:13;;;;;;;1.27;0.73;;;19.30;66.30;;;;;;5007755;27;95867;-54
2021/08/16 04:10:43;;;;;;;2.35;1.30;;;19.40;66.20;;;;;;5023349;27;96313;-51
2021/08/16 04:13:13;;;;;;;1.48;1.02;;;19.50;66.30;;;;;;5025621;27;95815;-51
2021/08/16 04:15:43;;;;;;;1.63;1.10;;;19.50;66.10;;;;;;5020621;28;97447;-53
2021/08/16 04:18:15;;;;;;;1.55;1.30;;;19.60;66.00;;;;;;5006495;28;95902;-54
2021/08/16 04:20:46;;;;;;;1.98;1.00;;;19.70;66.00;;;;;;5025135;28;95373;-55
2021/08/16 04:23:17;;;;;;;1.92;1.17;;;19.80;66.00;;;;;;5026064;27;95303;-55
2021/08/16 04:25:48;;;;;;;3.03;1.17;;;19.80;65.90;;;;;;5026948;28;95964;-56
2021/08/16 04:28:19;;;;;;;1.60;0.87;;;19.90;65.80;;;;;;5006682;28;96250;-54
2021/08/16 04:30:53;;;;;;;1.60;0.93;;;20.10;65.70;;;;;;5017115;27;95847;-51
2021/08/16 04:33:25;;;;;;;1.67;1.00;;;20.10;65.50;;;;;;5021869;27;97060;-56
2021/08/16 04:35:57;;;;;;;3.40;1.30;;;20.20;65.70;;;;;;5005985;27;96300;-54
2021/08/16 04:38:29;;;;;;;3.53;1.48;;;20.20;64.40;;;;;;5023010;27;96562;-55
2021/08/16 04:41:01;;;;;;;3.50;1.63;;;20.00;62.30;;;;;;5021375;27;95349;-54
2021/08/16 04:43:31;;;;;;;4.80;2.03;;;19.80;62.50;;;;;;5022890;27;97209;-55
2021/08/16 04:46:01;;;;;;;4.75;1.95;;;19.70;62.50;;;;;;5018289;27;95937;-53
2021/08/16 04:48:31;;;;;;;3.97;1.88;;;19.60;62.90;;;;;;5019622;27;96571;-56
2021/08/16 04:51:01;;;;;;;2.97;1.60;;;19.50;62.80;;;;;;5020816;27;95765;-55
2021/08/16 04:53:33;;;;;;;4.55;1.75;;;19.40;63.10;;;;;;5022609;27;95959;-53
2021/08/16 04:56:05;;;;;;;3.25;1.85;;;19.30;63.20;;;;;;5023063;27;95805;-55
2021/08/16 04:58:35;;;;;;;7.88;2.67;;;19.20;63.40;;;;;;5023313;27;96164;-55
2021/08/16 05:01:05;;;;;;;4.40;1.70;;;19.20;63.70;;;;;;5017911;27;95953;-53
2021/08/16 05:03:36;;;;;;;3.03;1.75;;;19.10;63.80;;;;;;5022629;27;95874;-51
2021/08/16 05:06:07;;;;;;;3.78;1.60;;;19.00;64.00;;;;;;5024147;28;95803;-56
2021/08/16 05:08:37;;;;;;;;;;;19.00;64.20;;;;;;5005820;27;99102;-55
2021/08/16 05:11:07;;;;;;;5.43;1.85;;;19.00;64.40;;;;;;5024877;27;95692;-54
2021/08/16 05:13:37;;;;;;;4.65;1.92;;;19.00;64.50;;;;;;5022789;27;95432;-51
2021/08/16 05:16:08;;;;;;;3.53;1.73;;;18.90;64.70;;;;;;5017655;27;95751;-53
2021/08/16 05:18:40;;;;;;;3.55;1.65;;;18.80;64.80;;;;;;5022461;27;95870;-53
2021/08/16 05:21:11;;;;;;;6.55;3.10;;;18.80;65.00;;;;;;5021107;27;95825;-52
2021/08/16 05:23:40;;;;;;;8.53;3.27;;;18.80;65.10;;;;;;5020447;27;96183;-50
2021/08/16 05:26:11;;;;;;;6.80;2.90;;;18.80;65.30;;;;;;5022480;27;95829;-53
2021/08/16 05:28:43;;;;;;;6.65;3.63;;;18.70;65.40;;;;;;5021250;27;96562;-50
2021/08/16 05:31:15;;;;;;;8.70;3.97;;;18.70;65.40;;;;;;5016666;27;96031;-49
2021/08/16 05:33:46;;;;;;;6.30;3.17;;;18.70;65.40;;;;;;5019555;27;95818;-54
2021/08/16 05:36:19;;;;;;;8.75;3.83;;;18.70;65.70;;;;;;5013870;27;98457;-55
2021/08/16 05:38:53;;;;;;;9.02;4.72;;;18.70;65.70;;;;;;5019255;27;98173;-55
2021/08/16 05:41:23;;;;;;;10.05;6.75;;;18.70;65.70;;;;;;5020104;27;96203;-51
2021/08/16 05:43:54;;;;;;;13.43;9.00;;;18.70;65.80;;;;;;5022128;27;95366;-49
2021/08/16 05:46:25;;;;;;;21.08;11.77;;;18.60;66.00;;;;;;5016811;27;95929;-50
2021/08/16 05:48:55;;;;;;;16.30;10.77;;;18.70;66.10;;;;;;5019457;27;95961;-51
2021/08/16 05:51:28;;;;;;;17.65;12.32;;;18.70;66.20;;;;;;5020815;27;95695;-56
2021/08/16 05:53:59;;;;;;;19.33;13.02;;;18.60;66.40;;;;;;5021446;27;97076;-53
2021/08/16 05:56:30;;;;;;;18.17;12.10;;;18.50;66.60;;;;;;5020878;27;96760;-51
2021/08/16 05:59:01;;;;;;;15.07;10.00;;;18.50;66.90;;;;;;5020594;27;96909;-52
2021/08/16 06:01:38;;;;;;;18.48;12.27;;;18.50;67.00;;;;;;5017769;27;96553;-54
2021/08/16 06:04:10;;;;;;;13.38;10.23;;;18.50;67.40;;;;;;5022006;27;97746;-53
2021/08/16 06:06:40;;;;;;;17.05;10.93;;;18.60;67.00;;;;;;5005046;28;96169;-51
2021/08/16 06:09:10;;;;;;;13.27;10.02;;;18.70;67.40;;;;;;5022969;28;95867;-55
2021/08/16 06:11:40;;;;;;;16.80;10.73;;;18.70;67.50;;;;;;5003104;27;96147;-55
2021/08/16 06:14:11;;;;;;;17.75;11.00;;;18.70;67.70;;;;;;5021756;28;95462;-51
2021/08/16 06:16:42;;;;;;;12.33;8.70;;;18.80;67.80;;;;;;5017518;27;95942;-54
2021/08/16 06:19:14;;;;;;;;;;;18.90;68.00;;;;;;5023808;28;96510;-52
2021/08/16 06:21:44;;;;;;;14.90;9.13;;;18.90;68.00;;;;;;5022681;27;96143;-53
2021/08/16 06:24:15;;;;;;;12.23;9.00;;;18.90;68.10;;;;;;5021860;27;95926;-54
2021/08/16 06:26:46;;;;;;;10.32;7.90;;;18.90;68.10;;;;;;5023902;27;96520;-55
2021/08/16 06:29:18;;;;;;;11.45;8.25;;;19.00;68.10;;;;;;5021278;28;95970;-54
2021/08/16 06:31:49;;;;;;;11.57;8.07;;;19.00;68.30;;;;;;5017396;28;97273;-49
2021/08/16 06:34:22;;;;;;;10.73;8.15;;;19.00;68.40;;;;;;5016122;27;95415;-50
2021/08/16 06:36:56;;;;;;;11.18;8.30;;;19.00;68.40;;;;;;5010106;28;96109;-52
2021/08/16 06:39:28;;;;;;;13.65;7.82;;;19.00;68.40;;;;;;5022398;27;96164;-55
2021/08/16 06:41:59;;;;;;;11.90;7.13;;;19.10;68.30;;;;;;5004171;28;98019;-51
2021/08/16 06:44:31;;;;;;;9.50;6.75;;;19.10;68.60;;;;;;5024429;27;95714;-53
2021/08/16 06:47:01;;;;;;;9.95;7.05;;;19.10;68.70;;;;;;5017394;28;96635;-51
2021/08/16 06:49:31;;;;;;;10.57;6.80;;;19.10;68.60;;;;;;5021766;27;96045;-55
2021/08/16 06:52:04;;;;;;;7.93;5.65;;;19.10;68.80;;;;;;5022256;27;96006;-52
2021/08/16 06:54:34;;;;;;;9.18;6.35;;;19.20;68.90;;;;;;5023638;27;96376;-53
2021/08/16 06:57:04;;;;;;;8.32;6.32;;;19.20;68.80;;;;;;5023275;28;96619;-53
2021/08/16 06:59:35;;;;;;;9.10;6.35;;;19.20;68.90;;;;;;5036078;27;96577;-54
2021/08/16 07:02:08;;;;;;;8.93;5.80;;;19.20;68.00;;;;;;5015230;27;96260;-56
2021/08/16 07:04:42;;;;;;;8.02;5.60;;;19.20;67.50;;;;;;5036345;27;96545;-57
2021/08/16 07:07:13;;;;;;;12.38;6.65;;;19.10;67.20;;;;;;5004535;28;95870;-54
2021/08/16 07:09:43;;;;;;;6.53;4.68;;;19.10;67.20;;;;;;5021019;27;95973;-55
2021/08/16 07:12:13;;;;;;;8.32;5.40;;;19.10;67.20;;;;;;5025402;28;95856;-53
2021/08/16 07:14:43;;;;;;;9.20;5.00;;;19.10;66.80;;;;;;5023114;27;95782;-59
2021/08/16 07:17:14;;;;;;;8.05;4.50;;;19.10;66.80;;;;;;5019894;27;96520;-53
2021/08/16 07:19:45;;;;;;;6.55;4.40;;;19.00;66.80;;;;;;5021827;27;98080;-54
2021/08/16 07:22:16;;;;;;;7.03;4.25;;;19.00;66.70;;;;;;5021112;27;95689;-53
2021/08/16 07:24:47;;;;;;;6.38;4.07;;;19.00;66.70;;;;;;5023051;27;95842;-53
2021/08/16 07:27:17;;;;;;;7.25;4.93;;;18.90;66.70;;;;;;5021889;27;96688;-53
2021/08/16 07:29:48;;;;;;;7.22;5.00;;;18.90;66.80;;;;;;5023761;27;96125;-57
2021/08/16 07:32:19;;;;;;;6.57;3.78;;;18.90;66.80;;;;;;5017547;27;96300;-54
2021/08/16 07:34:50;;;;;;;6.68;3.88;;;18.90;66.80;;;;;;5030435;27;95925;-55
2021/08/16 07:37:21;;;;;;;8.15;4.07;;;18.80;66.80;;;;;;5014197;27;95319;-52
2021/08/16 07:39:52;;;;;;;6.00;3.75;;;18.80;66.80;;;;;;5022914;27;97276;-54
2021/08/16 07:42:25;;;;;;;7.78;3.88;;;18.80;66.90;;;;;;5007141;27;95985;-52
2021/08/16 07:44:57;;;;;;;6.43;3.63;;;18.80;67.00;;;;;;5023897;27;96478;-54
2021/08/16 07:47:28;;;;;;;5.85;3.30;;;18.80;67.00;;;;;;4985134;28;95571;-54
2021/08/16 07:49:59;;;;;;;4.93;3.22;;;18.70;67.00;;;;;;5005776;27;96041;-55
2021/08/16 07:52:35;;;;;;;3.95;3.08;;;18.70;67.00;;;;;;5003744;27;95769;-54
2021/08/16 07:55:08;;;;;;;3.88;2.88;;;18.70;67.00;;;;;;5022194;27;95782;-57
2021/08/16 07:57:38;;;;;;;4.32;3.40;;;18.70;67.10;;;;;;5024036;27;95903;-53
2021/08/16 08:00:09;;;;;;;5.47;2.83;;;18.70;67.30;;;;;;5022526;27;96198;-55
2021/08/16 08:02:46;;;;;;;;;;;18.70;67.20;;;;;;5020875;27;96193;-55
2021/08/16 08:05:19;;;;;;;4.88;2.47;;;18.70;67.40;;;;;;5023919;27;95734;-56
2021/08/16 08:07:49;;;;;;;3.30;2.38;;;18.60;67.30;;;;;;5023596;27;98342;-52
2021/08/16 08:10:22;;;;;;;6.68;3.05;;;18.60;67.40;;;;;;5019327;27;96798;-56
2021/08/16 08:12:54;;;;;;;3.70;2.53;;;18.60;67.50;;;;;;5021982;27;96274;-55
2021/08/16 08:15:25;;;;;;;;;;;18.60;67.60;;;;;;5020337;27;96814;-56
2021/08/16 08:17:56;;;;;;;3.63;2.40;;;18.60;67.70;;;;;;5024386;27;95926;-50
2021/08/16 08:20:30;;;;;;;3.53;2.60;;;18.60;67.90;;;;;;5024567;27;95903;-51
2021/08/16 08:23:00;;;;;;;4.13;2.67;;;18.50;67.90;;;;;;5024133;27;95954;-55
2021/08/16 08:25:30;;;;;;;5.22;2.90;;;18.50;68.00;;;;;;5022047;27;96026;-53
2021/08/16 08:28:01;;;;;;;4.85;2.90;;;18.50;68.00;;;;;;5020921;27;95738;-50
2021/08/16 08:30:31;;;;;;;;;;;18.50;68.00;;;;;;5035002;27;97796;-53
2021/08/16 08:33:03;;;;;;;3.20;2.10;;;18.50;67.90;;;;;;5026172;27;95745;-50
2021/08/16 08:35:34;;;;;;;3.95;2.63;;;18.50;68.00;;;;;;5013534;27;95955;-52
2021/08/16 08:38:05;;;;;;;4.55;2.20;;;18.50;68.00;;;;;;5019873;27;95621;-53
2021/08/16 08:40:36;;;;;;;;;;;18.40;67.80;;;;;;5023800;27;96721;-54
2021/08/16 08:43:13;;;;;;;3.35;2.08;;;18.40;67.90;;;;;;5025267;27;95844;-53
2021/08/16 08:45:46;;;;;;;2.97;1.90;;;18.40;67.90;;;;;;5019627;28;95330;-52
2021/08/16 08:48:18;;;;;;;2.67;1.65;;;18.40;67.80;;;;;;5024037;27;95724;-55
2021/08/16 08:50:50;;;;;;;3.20;2.33;;;18.40;67.70;;;;;;5023959;27;96579;-53
2021/08/16 08:53:21;;;;;;;3.55;2.65;;;18.40;67.80;;;;;;5024380;27;96040;-52
2021/08/16 08:55:52;;;;;;;3.50;2.55;;;18.40;67.70;;;;;;5024979;28;96249;-54
2021/08/16 08:58:22;;;;;;;4.17;2.43;;;18.40;67.70;;;;;;5024133;27;95725;-54
2021/08/16 09:00:52;;;;;;;2.78;2.20;;;18.30;67.70;;;;;;4999455;27;98778;-53
2021/08/16 09:03:22;;;;;;;3.10;2.47;;;18.30;67.60;;;;;;5004495;27;97323;-52
2021/08/16 09:05:58;;;;;;;2.45;2.15;;;18.30;67.60;;;;;;5022247;27;96589;-52
2021/08/16 09:08:29;;;;;;;2.83;2.33;;;18.30;67.60;;;;;;5022456;27;95885;-55
2021/08/16 09:11:16;;;;;;;4.07;2.72;;;18.30;67.50;;;;;;5020980;27;95858;-55
2021/08/16 09:14:03;;;;;;;3.95;2.45;;;18.30;67.50;;;;;;5021712;27;96554;-53
2021/08/16 09:16:37;;;;;;;2.30;1.77;;;18.30;67.50;;;;;;5024378;27;95779;-54
2021/08/16 09:19:23;;;;;;;3.55;2.00;;;18.20;67.70;;;;;;5025760;27;96589;-56
2021/08/16 09:22:08;;;;;;;2.53;1.88;;;18.10;68.10;;;;;;5007140;27;96729;-52
2021/08/16 09:24:38;;;;;;;3.33;1.95;;;18.00;68.30;;;;;;5010087;27;95716;-51
2021/08/16 09:27:10;;;;;;;2.78;2.10;;;17.90;68.50;;;;;;5017760;27;96438;-51
2021/08/16 09:29:52;;;;;;;2.03;1.70;;;17.80;68.70;;;;;;5019107;27;95763;-55
2021/08/16 09:32:34;;;;;;;2.63;2.35;;;17.80;68.80;;;;;;5016401;27;97886;-56
2021/08/16 09:35:11;;;;;;;2.60;1.80;;;17.70;68.90;;;;;;5017503;27;96260;-58
2021/08/16 09:37:45;;;;;;;2.78;2.15;;;17.70;68.90;;;;;;5037809;27;95993;-55
2021/08/16 09:40:19;;;;;;;2.58;2.17;;;17.70;69.20;;;;;;5047483;27;95830;-53
2021/08/16 09:42:50;;;;;;;2.80;1.87;;;17.60;69.10;;;;;;5010003;27;96173;-53
2021/08/16 09:45:32;;;;;;;4.05;2.55;;;17.60;69.10;;;;;;5015198;27;95565;-55
2021/08/16 09:48:04;;;;;;;3.35;2.42;;;17.60;69.20;;;;;;5013899;27;95728;-54
2021/08/16 09:50:40;;;;;;;3.65;1.95;;;17.60;69.30;;;;;;5023272;27;95853;-56
2021/08/16 09:53:16;;;;;;;3.20;2.17;;;17.50;69.30;;;;;;5019546;27;95900;-55
2021/08/16 09:55:53;;;;;;;4.15;2.33;;;17.50;69.30;;;;;;5019681;27;96083;-56
2021/08/16 09:58:24;;;;;;;3.88;2.20;;;17.50;69.40;;;;;;5008313;27;96202;-54
2021/08/16 10:00:56;;;;;;;2.57;1.70;;;17.50;69.40;;;;;;4993928;27;95900;-53
2021/08/16 10:03:29;;;;;;;3.97;2.10;;;17.50;69.40;;;;;;5019003;27;96546;-53
2021/08/16 10:06:00;;;;;;;2.35;2.08;;;17.40;69.30;;;;;;5016653;27;95759;-55
2021/08/16 10:08:39;;;;;;;2.25;1.80;;;17.40;70.00;;;;;;5034514;27;96012;-53
2021/08/16 10:11:14;;;;;;;1.90;1.70;;;17.40;69.40;;;;;;5014263;27;95811;-52
2021/08/16 10:13:48;;;;;;;2.22;1.88;;;17.40;69.40;;;;;;5015792;27;95887;-52
2021/08/16 10:16:24;;;;;;;4.82;2.38;;;17.40;69.50;;;;;;5012653;27;97943;-54
2021/08/16 10:19:04;;;;;;;2.97;1.75;;;17.40;69.50;;;;;;5018621;27;95820;-53
2021/08/16 10:21:41;;;;;;;3.58;1.70;;;17.30;69.50;;;;;;5023822;27;95795;-51
2021/08/16 10:24:23;;;;;;;3.80;2.25;;;17.40;69.60;;;;;;5015721;27;95961;-53
2021/08/16 10:27:01;;;;;;;2.55;1.92;;;17.30;69.60;;;;;;5020776;27;95750;-52
2021/08/16 10:29:33;;;;;;;2.17;1.92;;;17.30;69.60;;;;;;5020141;27;95316;-54
2021/08/16 10:32:16;;;;;;;2.17;1.58;;;17.30;69.60;;;;;;5016314;27;96039;-51
2021/08/16 10:34:48;;;;;;;3.25;1.98;;;17.30;69.60;;;;;;5012462;27;96149;-52
2021/08/16 10:37:20;;;;;;;2.45;1.75;;;17.30;69.70;;;;;;5015515;27;95361;-53
2021/08/16 10:39:51;;;;;;;4.07;1.80;;;17.20;69.60;;;;;;5020115;27;95765;-52
2021/08/16 10:42:37;;;;;;;2.03;1.88;;;17.20;69.60;;;;;;5023458;27;96423;-52
2021/08/16 10:45:09;;;;;;;3.55;2.30;;;17.20;69.60;;;;;;5000603;27;97575;-53
2021/08/16 10:47:40;;;;;;;3.25;2.28;;;17.20;69.60;;;;;;5033615;27;95805;-53
2021/08/16 10:50:13;;;;;;;3.25;2.30;;;17.20;69.70;;;;;;5034126;27;95857;-52
2021/08/16 10:52:48;;;;;;;2.63;1.70;;;17.20;69.80;;;;;;5034190;27;95749;-54
2021/08/16 10:55:26;;;;;;;2.80;1.88;;;17.20;69.80;;;;;;5010441;27;96188;-51
2021/08/16 10:57:56;;;;;;;2.55;1.67;;;17.10;69.70;;;;;;5024818;27;95861;-52
2021/08/16 11:00:26;;;;;;;2.15;1.92;;;17.10;69.70;;;;;;5016530;27;95651;-51
2021/08/16 11:02:57;;;;;;;3.55;2.30;;;17.10;69.70;;;;;;5017852;27;95794;-51
2021/08/16 11:05:34;;;;;;;3.38;1.90;;;17.10;69.80;;;;;;5019381;27;96663;-54
2021/08/16 11:08:08;;;;;;;3.05;2.15;;;17.10;69.80;;;;;;5021161;27;96380;-51
2021/08/16 11:10:45;;;;;;;2.17;1.55;;;17.10;69.80;;;;;;5007652;27;95887;-51
2021/08/16 11:13:21;;;;;;;3.35;2.10;;;17.10;69.80;;;;;;5023483;27;95203;-50
2021/08/16 11:15:52;;;;;;;2.88;1.83;;;17.10;69.90;;;;;;5019013;27;96426;-52
2021/08/16 11:18:26;;;;;;;;;;;17.10;69.80;;;;;;5017298;27;95751;-53
2021/08/16 11:21:02;;;;;;;2.30;1.85;;;17.00;69.80;;;;;;5018367;27;95681;-53
2021/08/16 11:23:32;;;;;;;3.97;2.05;;;17.00;69.80;;;;;;5020680;27;95582;-54
2021/08/16 11:26:02;;;;;;;2.83;2.08;;;17.00;69.80;;;;;;5012508;27;96024;-51
2021/08/16 11:28:34;;;;;;;2.63;2.28;;;17.00;69.80;;;;;;5025378;27;95974;-51
2021/08/16 11:31:08;;;;;;;2.33;1.90;;;17.00;69.80;;;;;;5022752;27;95838;-53
2021/08/16 11:33:41;;;;;;;3.88;2.08;;;16.90;69.80;;;;;;5020581;27;96091;-52
2021/08/16 11:36:16;;;;;;;2.30;1.65;;;16.90;69.90;;;;;;5011898;27;96403;-52
2021/08/16 11:38:54;;;;;;;1.90;1.65;;;16.90;69.80;;;;;;5018289;27;96285;-53
2021/08/16 11:41:33;;;;;;;2.80;2.10;;;16.90;69.90;;;;;;5018859;27;95530;-54
2021/08/16 11:44:14;;;;;;;2.95;2.17;;;16.90;69.90;;;;;;5021495;27;95306;-52
2021/08/16 11:46:45;;;;;;;2.33;1.90;;;16.90;69.90;;;;;;5018031;27;96454;-52
2021/08/16 11:49:15;;;;;;;3.23;2.03;;;16.90;69.90;;;;;;5023313;27;95456;-54
2021/08/16 11:51:47;;;;;;;2.20;2.00;;;16.90;69.90;;;;;;5020156;27;95773;-53
2021/08/16 11:54:31;;;;;;;2.22;1.60;;;16.90;69.90;;;;;;5018349;27;95608;-54
2021/08/16 11:57:07;;;;;;;3.10;2.00;;;16.80;69.90;;;;;;5019249;27;95826;-52
2021/08/16 11:59:37;;;;;;;2.83;2.15;;;16.80;69.90;;;;;;5022031;27;95997;-52
2021/08/16 12:02:07;;;;;;;2.35;1.92;;;16.80;69.90;;;;;;5017995;27;95610;-53
2021/08/16 12:04:39;;;;;;;2.22;1.77;;;16.80;69.90;;;;;;5009188;27;95922;-53
2021/08/16 12:07:09;;;;;;;1.80;1.70;;;16.80;69.90;;;;;;5019847;27;95847;-51
2021/08/16 12:09:39;;;;;;;2.25;1.80;;;16.80;70.00;;;;;;5044875;27;95854;-53
2021/08/16 12:12:11;;;;;;;2.47;2.00;;;16.80;70.00;;;;;;5030288;27;95503;-53
2021/08/16 12:14:41;;;;;;;5.45;2.10;;;16.80;70.00;;;;;;5030920;28;95190;-54
2021/08/16 12:17:25;;;;;;;2.15;1.80;;;16.70;69.90;;;;;;5026793;27;97527;-53
2021/08/16 12:20:07;;;;;;;2.75;2.08;;;16.70;69.90;;;;;;5029196;28;95882;-51
2021/08/16 12:22:53;;;;;;;2.35;1.63;;;16.70;70.00;;;;;;5028928;27;95983;-54
2021/08/16 12:25:24;;;;;;;2.72;2.30;;;16.70;70.00;;;;;;5030562;28;95788;-56
2021/08/16 12:28:02;;;;;;;2.75;2.15;;;16.70;70.00;;;;;;5030229;27;96479;-52
2021/08/16 12:30:35;;;;;;;2.13;1.92;;;16.70;70.00;;;;;;5039964;27;95911;-54
2021/08/16 12:33:10;;;;;;;3.50;1.60;;;16.70;70.10;;;;;;5031111;27;96255;-53
2021/08/16 12:35:53;;;;;;;2.42;1.90;;;16.60;70.00;;;;;;5013152;28;95899;-54
2021/08/16 12:38:29;;;;;;;2.47;1.90;;;16.60;70.00;;;;;;5026031;27;95884;-55
2021/08/16 12:41:07;;;;;;;2.65;1.90;;;16.60;70.00;;;;;;5030100;28;96103;-55
2021/08/16 12:43:40;;;;;;;1.80;1.50;;;16.60;70.00;;;;;;5045522;27;95492;-52
2021/08/16 12:46:13;;;;;;;2.90;1.63;;;16.60;70.00;;;;;;5025670;27;95580;-54
2021/08/16 12:48:45;;;;;;;1.98;1.42;;;16.60;70.00;;;;;;5032167;27;95893;-55
2021/08/16 12:51:17;;;;;;;3.88;1.92;;;16.60;70.00;;;;;;5025747;27;95578;-53
2021/08/16 12:53:50;;;;;;;1.83;1.50;;;16.60;70.10;;;;;;5026157;27;96073;-54
2021/08/16 12:56:21;;;;;;;1.75;1.52;;;16.60;70.10;;;;;;5039906;27;95321;-52
2021/08/16 12:58:50;;;;;;;2.67;2.08;;;16.50;70.00;;;;;;5022545;27;95727;-55
2021/08/16 13:01:26;;;;;;;2.72;1.88;;;16.60;70.00;;;;;;5011976;27;95732;-54
2021/08/16 13:03:58;;;;;;;2.25;1.60;;;16.50;70.00;;;;;;5019136;27;96856;-56
2021/08/16 13:06:29;;;;;;;2.88;1.67;;;16.50;70.00;;;;;;5020111;27;95822;-51
2021/08/16 13:08:59;;;;;;;1.80;1.50;;;16.50;70.00;;;;;;5032652;27;96736;-54
2021/08/16 13:11:32;;;;;;;2.67;1.55;;;16.50;70.00;;;;;;5020566;27;95984;-53
2021/08/16 13:14:02;;;;;;;1.50;1.40;;;16.50;70.00;;;;;;5037945;27;95832;-52